sensor_id;sensor_type;location;lat;lon;timestamp;pressure;altitude;pressure_sealevel;temperature;humidity
7075;BME280;3578;51.568;6.932;2023-04-29T00:01:22;49564.53;;;-144.14;100.00
7075;BME280;3578;51.568;6.932;2023-04-29T00:03:49;49540.53;;;-144.14;100.00
7075;BME280;3578;51.568;6.932;2023-04-29T00:06:16;49508.50;;;-144.14;100.00
7075;BME280;3578;51.568;6.932;2023-04-29T00:08:43;49492.47;;;-144.14;100.00
7075;BME280;3578;51.568;6.932;2023-04-29T00:11:10;49520.50;;;-144.14;100.00
7075;BME280;3578;51.568;6.932;2023-04-29T00:13:37;49496.47;;;-144.14;100.00
7075;BME280;3578;51.568;6.932;2023-04-29T00:16:07;49368.38;;;-144.14;100.00
7075;BME280;3578;51.568;6.932;2023-04-29T00:18:36;49316.31;;;-144.14;100.00
7075;BME280;3578;51.568;6.932;2023-04-29T00:21:03;49336.34;;;-144.14;100.00
7075;BME280;3578;51.568;6.932;2023-04-29T00:23:32;49406.41;;;-144.14;100.00
7075;BME280;3578;51.568;6.932;2023-04-29T00:25:59;49332.34;;;-144.14;100.00
7075;BME280;3578;51.568;6.932;2023-04-29T00:28:25;49432.44;;;-144.14;100.00
7075;BME280;3578;51.568;6.932;2023-04-29T00:30:52;49404.41;;;-144.14;100.00
7075;BME280;3578;51.568;6.932;2023-04-29T00:33:20;49448.44;;;-144.14;100.00
7075;BME280;3578;51.568;6.932;2023-04-29T00:35:49;49394.38;;;-144.14;100.00
7075;BME280;3578;51.568;6.932;2023-04-29T00:38:16;49356.34;;;-144.14;100.00
7075;BME280;3578;51.568;6.932;2023-04-29T00:40:44;49396.38;;;-144.14;100.00
7075;BME280;3578;51.568;6.932;2023-04-29T00:43:11;49448.44;;;-144.14;100.00
7075;BME280;3578;51.568;6.932;2023-04-29T00:45:38;49582.56;;;-144.14;100.00
7075;BME280;3578;51.568;6.932;2023-04-29T00:48:05;49560.53;;;-144.14;100.00
7075;BME280;3578;51.568;6.932;2023-04-29T00:50:32;49634.63;;;-144.14;100.00
7075;BME280;3578;51.568;6.932;2023-04-29T00:53:00;49678.66;;;-144.14;100.00
7075;BME280;3578;51.568;6.932;2023-04-29T00:55:29;49632.63;;;-144.14;100.00
7075;BME280;3578;51.568;6.932;2023-04-29T00:57:57;49612.59;;;-144.14;100.00
7075;BME280;3578;51.568;6.932;2023-04-29T01:00:24;49620.59;;;-144.14;100.00
7075;BME280;3578;51.568;6.932;2023-04-29T01:02:52;49660.63;;;-144.14;100.00
7075;BME280;3578;51.568;6.932;2023-04-29T01:05:21;49656.63;;;-144.14;100.00
7075;BME280;3578;51.568;6.932;2023-04-29T01:08:06;49602.59;;;-144.14;100.00
7075;BME280;3578;51.568;6.932;2023-04-29T01:10:43;49654.63;;;-144.14;100.00
7075;BME280;3578;51.568;6.932;2023-04-29T01:13:20;49594.56;;;-144.14;100.00
7075;BME280;3578;51.568;6.932;2023-04-29T01:15:59;49558.53;;;-144.14;100.00
7075;BME280;3578;51.568;6.932;2023-04-29T01:18:32;49534.53;;;-144.14;100.00
7075;BME280;3578;51.568;6.932;2023-04-29T01:21:00;49516.50;;;-144.14;100.00
7075;BME280;3578;51.568;6.932;2023-04-29T01:23:29;49536.53;;;-144.14;100.00
7075;BME280;3578;51.568;6.932;2023-04-29T01:25:56;49576.56;;;-144.14;100.00
7075;BME280;3578;51.568;6.932;2023-04-29T01:28:39;49554.53;;;-144.14;100.00
7075;BME280;3578;51.568;6.932;2023-04-29T01:31:17;49528.50;;;-144.14;100.00
7075;BME280;3578;51.568;6.932;2023-04-29T01:33:49;49512.50;;;-144.14;100.00
7075;BME280;3578;51.568;6.932;2023-04-29T01:36:26;49558.53;;;-144.14;100.00
7075;BME280;3578;51.568;6.932;2023-04-29T01:39:13;49540.53;;;-144.14;100.00
7075;BME280;3578;51.568;6.932;2023-04-29T01:41:43;49540.53;;;-144.14;100.00
7075;BME280;3578;51.568;6.932;2023-04-29T01:44:15;49550.53;;;-144.14;100.00
7075;BME280;3578;51.568;6.932;2023-04-29T01:46:50;49620.59;;;-144.14;100.00
7075;BME280;3578;51.568;6.932;2023-04-29T01:49:19;49610.59;;;-144.14;100.00
7075;BME280;3578;51.568;6.932;2023-04-29T01:51:46;49636.63;;;-144.14;100.00
7075;BME280;3578;51.568;6.932;2023-04-29T01:54:15;49668.66;;;-144.14;100.00
7075;BME280;3578;51.568;6.932;2023-04-29T01:56:42;49688.66;;;-144.14;100.00
7075;BME280;3578;51.568;6.932;2023-04-29T01:59:09;49730.72;;;-144.14;100.00
7075;BME280;3578;51.568;6.932;2023-04-29T02:01:36;49828.81;;;-144.14;100.00
7075;BME280;3578;51.568;6.932;2023-04-29T02:04:04;49846.84;;;-144.14;100.00
7075;BME280;3578;51.568;6.932;2023-04-29T02:06:31;49776.75;;;-144.14;100.00
7075;BME280;3578;51.568;6.932;2023-04-29T02:08:58;49770.75;;;-144.14;100.00
7075;BME280;3578;51.568;6.932;2023-04-29T02:11:26;49770.75;;;-144.14;100.00
7075;BME280;3578;51.568;6.932;2023-04-29T02:13:53;49770.75;;;-144.14;100.00
7075;BME280;3578;51.568;6.932;2023-04-29T02:16:20;49766.75;;;-144.14;100.00
7075;BME280;3578;51.568;6.932;2023-04-29T02:18:47;49816.78;;;-144.14;100.00
7075;BME280;3578;51.568;6.932;2023-04-29T02:21:14;49796.78;;;-144.14;100.00
7075;BME280;3578;51.568;6.932;2023-04-29T02:23:41;49746.72;;;-144.14;100.00
7075;BME280;3578;51.568;6.932;2023-04-29T02:26:08;49770.75;;;-144.14;100.00
7075;BME280;3578;51.568;6.932;2023-04-29T02:28:36;49776.75;;;-144.14;100.00
7075;BME280;3578;51.568;6.932;2023-04-29T02:31:03;49806.78;;;-144.14;100.00
7075;BME280;3578;51.568;6.932;2023-04-29T02:33:31;49748.72;;;-144.14;100.00
7075;BME280;3578;51.568;6.932;2023-04-29T02:35:58;49778.75;;;-144.14;100.00
7075;BME280;3578;51.568;6.932;2023-04-29T02:38:25;49782.75;;;-144.14;100.00
7075;BME280;3578;51.568;6.932;2023-04-29T02:40:52;49752.72;;;-144.14;100.00
7075;BME280;3578;51.568;6.932;2023-04-29T02:43:19;49790.78;;;-144.14;100.00
7075;BME280;3578;51.568;6.932;2023-04-29T02:45:47;49802.78;;;-144.14;100.00
7075;BME280;3578;51.568;6.932;2023-04-29T02:48:15;49734.72;;;-144.14;100.00
7075;BME280;3578;51.568;6.932;2023-04-29T02:50:42;49724.69;;;-144.14;100.00
7075;BME280;3578;51.568;6.932;2023-04-29T02:53:09;49744.72;;;-144.14;100.00
7075;BME280;3578;51.568;6.932;2023-04-29T02:55:35;49710.69;;;-144.14;100.00
7075;BME280;3578;51.568;6.932;2023-04-29T02:58:02;49636.63;;;-144.14;100.00
7075;BME280;3578;51.568;6.932;2023-04-29T03:00:29;49686.66;;;-144.14;100.00
7075;BME280;3578;51.568;6.932;2023-04-29T03:02:58;49700.69;;;-144.14;100.00
7075;BME280;3578;51.568;6.932;2023-04-29T03:05:25;49786.78;;;-144.14;100.00
7075;BME280;3578;51.568;6.932;2023-04-29T03:07:51;49792.78;;;-144.14;100.00
7075;BME280;3578;51.568;6.932;2023-04-29T03:10:19;49788.78;;;-144.14;100.00
7075;BME280;3578;51.568;6.932;2023-04-29T03:12:46;49782.75;;;-144.14;100.00
7075;BME280;3578;51.568;6.932;2023-04-29T03:15:13;49788.78;;;-144.14;100.00
7075;BME280;3578;51.568;6.932;2023-04-29T03:17:40;49772.75;;;-144.14;100.00
7075;BME280;3578;51.568;6.932;2023-04-29T03:20:10;49800.78;;;-144.14;100.00
7075;BME280;3578;51.568;6.932;2023-04-29T03:22:37;49796.78;;;-144.14;100.00
7075;BME280;3578;51.568;6.932;2023-04-29T03:25:05;49772.75;;;-144.14;100.00
7075;BME280;3578;51.568;6.932;2023-04-29T03:27:32;49770.75;;;-144.14;100.00
7075;BME280;3578;51.568;6.932;2023-04-29T03:29:59;49766.75;;;-144.14;100.00
7075;BME280;3578;51.568;6.932;2023-04-29T03:32:26;49764.75;;;-144.14;100.00
7075;BME280;3578;51.568;6.932;2023-04-29T03:34:53;49756.75;;;-144.14;100.00
7075;BME280;3578;51.568;6.932;2023-04-29T03:37:23;49738.72;;;-144.14;100.00
7075;BME280;3578;51.568;6.932;2023-04-29T03:39:49;49736.72;;;-144.14;100.00
7075;BME280;3578;51.568;6.932;2023-04-29T03:42:16;49736.72;;;-144.14;100.00
7075;BME280;3578;51.568;6.932;2023-04-29T03:44:43;49696.69;;;-144.14;100.00
7075;BME280;3578;51.568;6.932;2023-04-29T03:47:10;49678.66;;;-144.14;100.00
7075;BME280;3578;51.568;6.932;2023-04-29T03:49:38;49670.66;;;-144.14;100.00
7075;BME280;3578;51.568;6.932;2023-04-29T03:52:05;49688.66;;;-144.14;100.00
7075;BME280;3578;51.568;6.932;2023-04-29T03:54:34;49684.66;;;-144.14;100.00
7075;BME280;3578;51.568;6.932;2023-04-29T03:57:01;49652.63;;;-144.14;100.00
7075;BME280;3578;51.568;6.932;2023-04-29T03:59:28;49718.69;;;-144.14;100.00
7075;BME280;3578;51.568;6.932;2023-04-29T04:01:55;49676.66;;;-144.14;100.00
7075;BME280;3578;51.568;6.932;2023-04-29T04:04:23;49684.66;;;-144.14;100.00
7075;BME280;3578;51.568;6.932;2023-04-29T04:06:50;49680.66;;;-144.14;100.00
7075;BME280;3578;51.568;6.932;2023-04-29T04:09:18;49702.69;;;-144.14;100.00
7075;BME280;3578;51.568;6.932;2023-04-29T04:11:46;49646.63;;;-144.14;100.00
7075;BME280;3578;51.568;6.932;2023-04-29T04:14:13;49680.66;;;-144.14;100.00
7075;BME280;3578;51.568;6.932;2023-04-29T04:16:40;49724.69;;;-144.14;100.00
7075;BME280;3578;51.568;6.932;2023-04-29T04:19:08;49688.66;;;-144.14;100.00
7075;BME280;3578;51.568;6.932;2023-04-29T04:21:35;49654.63;;;-144.14;100.00
7075;BME280;3578;51.568;6.932;2023-04-29T04:24:02;49688.66;;;-144.14;100.00
7075;BME280;3578;51.568;6.932;2023-04-29T04:26:29;49688.66;;;-144.14;100.00
7075;BME280;3578;51.568;6.932;2023-04-29T04:28:57;49720.69;;;-144.14;100.00
7075;BME280;3578;51.568;6.932;2023-04-29T04:31:24;49694.69;;;-144.14;100.00
7075;BME280;3578;51.568;6.932;2023-04-29T04:33:51;49714.69;;;-144.14;100.00
7075;BME280;3578;51.568;6.932;2023-04-29T04:36:18;49712.69;;;-144.14;100.00
7075;BME280;3578;51.568;6.932;2023-04-29T04:38:45;49720.69;;;-144.14;100.00
7075;BME280;3578;51.568;6.932;2023-04-29T04:41:12;49726.72;;;-144.14;100.00
7075;BME280;3578;51.568;6.932;2023-04-29T04:43:39;49722.69;;;-144.14;100.00
7075;BME280;3578;51.568;6.932;2023-04-29T04:46:11;49764.75;;;-144.14;100.00
7075;BME280;3578;51.568;6.932;2023-04-29T04:48:39;49720.69;;;-144.14;100.00
7075;BME280;3578;51.568;6.932;2023-04-29T04:51:09;49728.72;;;-144.14;100.00
7075;BME280;3578;51.568;6.932;2023-04-29T04:53:38;49710.69;;;-144.14;100.00
7075;BME280;3578;51.568;6.932;2023-04-29T04:56:06;49740.72;;;-144.14;100.00
7075;BME280;3578;51.568;6.932;2023-04-29T04:58:33;49686.66;;;-144.14;100.00
7075;BME280;3578;51.568;6.932;2023-04-29T05:01:01;49746.72;;;-144.14;100.00
7075;BME280;3578;51.568;6.932;2023-04-29T05:03:29;49696.69;;;-144.14;100.00
7075;BME280;3578;51.568;6.932;2023-04-29T05:05:59;49704.69;;;-144.14;100.00
7075;BME280;3578;51.568;6.932;2023-04-29T05:08:26;49696.69;;;-144.14;100.00
7075;BME280;3578;51.568;6.932;2023-04-29T05:10:53;49718.69;;;-144.14;100.00
7075;BME280;3578;51.568;6.932;2023-04-29T05:13:20;49740.72;;;-144.14;100.00
7075;BME280;3578;51.568;6.932;2023-04-29T05:15:47;49748.72;;;-144.14;100.00
7075;BME280;3578;51.568;6.932;2023-04-29T05:18:14;49776.75;;;-144.14;100.00
7075;BME280;3578;51.568;6.932;2023-04-29T05:20:42;49796.78;;;-144.14;100.00
7075;BME280;3578;51.568;6.932;2023-04-29T05:23:09;49760.75;;;-144.14;100.00
7075;BME280;3578;51.568;6.932;2023-04-29T05:25:36;49792.78;;;-144.14;100.00
7075;BME280;3578;51.568;6.932;2023-04-29T05:28:04;49838.81;;;-144.14;100.00
7075;BME280;3578;51.568;6.932;2023-04-29T05:30:31;49846.84;;;-144.14;100.00
7075;BME280;3578;51.568;6.932;2023-04-29T05:32:58;49794.78;;;-144.14;100.00
7075;BME280;3578;51.568;6.932;2023-04-29T05:35:25;49814.78;;;-144.14;100.00
7075;BME280;3578;51.568;6.932;2023-04-29T05:37:53;49812.78;;;-144.14;100.00
7075;BME280;3578;51.568;6.932;2023-04-29T05:40:20;49850.84;;;-144.14;100.00
7075;BME280;3578;51.568;6.932;2023-04-29T05:42:48;49846.84;;;-144.14;100.00
7075;BME280;3578;51.568;6.932;2023-04-29T05:45:15;49840.81;;;-144.14;100.00
7075;BME280;3578;51.568;6.932;2023-04-29T05:47:42;49842.81;;;-144.14;100.00
7075;BME280;3578;51.568;6.932;2023-04-29T05:50:09;49852.84;;;-144.14;100.00
7075;BME280;3578;51.568;6.932;2023-04-29T05:52:37;49856.84;;;-144.14;100.00
7075;BME280;3578;51.568;6.932;2023-04-29T05:55:06;49862.84;;;-144.14;100.00
7075;BME280;3578;51.568;6.932;2023-04-29T05:57:32;49878.88;;;-144.14;100.00
7075;BME280;3578;51.568;6.932;2023-04-29T05:59:59;49904.88;;;-144.14;100.00
7075;BME280;3578;51.568;6.932;2023-04-29T06:02:26;49888.88;;;-144.14;100.00
7075;BME280;3578;51.568;6.932;2023-04-29T06:04:53;49878.88;;;-144.14;100.00
7075;BME280;3578;51.568;6.932;2023-04-29T06:07:21;49958.94;;;-144.14;100.00
7075;BME280;3578;51.568;6.932;2023-04-29T06:09:48;49982.97;;;-144.14;100.00
7075;BME280;3578;51.568;6.932;2023-04-29T06:12:16;50015.00;;;-144.14;100.00
7075;BME280;3578;51.568;6.932;2023-04-29T06:14:43;50011.00;;;-144.14;100.00
7075;BME280;3578;51.568;6.932;2023-04-29T06:17:10;50011.00;;;-144.14;100.00
7075;BME280;3578;51.568;6.932;2023-04-29T06:19:38;50017.00;;;-144.14;100.00
7075;BME280;3578;51.568;6.932;2023-04-29T06:22:05;50017.00;;;-144.14;100.00
7075;BME280;3578;51.568;6.932;2023-04-29T06:24:31;50015.00;;;-144.14;100.00
7075;BME280;3578;51.568;6.932;2023-04-29T06:26:58;50019.00;;;-144.14;100.00
7075;BME280;3578;51.568;6.932;2023-04-29T06:29:27;50027.03;;;-144.14;100.00
7075;BME280;3578;51.568;6.932;2023-04-29T06:31:54;50005.00;;;-144.14;100.00
7075;BME280;3578;51.568;6.932;2023-04-29T06:34:21;49999.00;;;-144.14;100.00
7075;BME280;3578;51.568;6.932;2023-04-29T06:36:48;50001.00;;;-144.14;100.00
7075;BME280;3578;51.568;6.932;2023-04-29T06:39:15;49984.97;;;-144.14;100.00
7075;BME280;3578;51.568;6.932;2023-04-29T06:41:42;49968.97;;;-144.14;100.00
7075;BME280;3578;51.568;6.932;2023-04-29T06:44:09;49999.00;;;-144.14;100.00
7075;BME280;3578;51.568;6.932;2023-04-29T06:46:38;50013.00;;;-144.14;100.00
7075;BME280;3578;51.568;6.932;2023-04-29T06:49:04;50029.03;;;-144.14;100.00
7075;BME280;3578;51.568;6.932;2023-04-29T06:51:31;50013.00;;;-144.14;100.00
7075;BME280;3578;51.568;6.932;2023-04-29T06:53:58;50027.03;;;-144.14;100.00
7075;BME280;3578;51.568;6.932;2023-04-29T06:56:26;50035.03;;;-144.14;100.00
7075;BME280;3578;51.568;6.932;2023-04-29T06:58:53;50021.00;;;-144.14;100.00
7075;BME280;3578;51.568;6.932;2023-04-29T07:01:20;50029.03;;;-144.14;100.00
7075;BME280;3578;51.568;6.932;2023-04-29T07:03:48;50065.06;;;-144.14;100.00
7075;BME280;3578;51.568;6.932;2023-04-29T07:06:15;50073.06;;;-144.14;99.66
7075;BME280;3578;51.568;6.932;2023-04-29T07:08:42;50087.09;;;-144.14;99.65
7075;BME280;3578;51.568;6.932;2023-04-29T07:11:09;50081.09;;;-144.14;99.66
7075;BME280;3578;51.568;6.932;2023-04-29T07:13:36;50083.09;;;-144.14;99.87
7075;BME280;3578;51.568;6.932;2023-04-29T07:16:04;50105.09;;;-144.14;99.69
7075;BME280;3578;51.568;6.932;2023-04-29T07:18:31;50115.13;;;-144.14;99.66
7075;BME280;3578;51.568;6.932;2023-04-29T07:21:01;50147.16;;;-144.14;99.12
7075;BME280;3578;51.568;6.932;2023-04-29T07:23:28;50189.19;;;-144.14;98.94
7075;BME280;3578;51.568;6.932;2023-04-29T07:25:55;50185.19;;;-144.14;98.94
7075;BME280;3578;51.568;6.932;2023-04-29T07:28:22;50157.16;;;-144.14;98.86
7075;BME280;3578;51.568;6.932;2023-04-29T07:30:49;50161.16;;;-144.14;98.92
7075;BME280;3578;51.568;6.932;2023-04-29T07:33:17;50177.19;;;-144.14;99.10
7075;BME280;3578;51.568;6.932;2023-04-29T07:35:44;50187.19;;;-144.14;98.81
7075;BME280;3578;51.568;6.932;2023-04-29T07:38:12;50169.19;;;-144.14;98.85
7075;BME280;3578;51.568;6.932;2023-04-29T07:40:41;50185.19;;;-144.14;98.82
7075;BME280;3578;51.568;6.932;2023-04-29T07:43:08;50201.22;;;-144.14;98.82
7075;BME280;3578;51.568;6.932;2023-04-29T07:45:34;50237.25;;;-144.14;98.38
7075;BME280;3578;51.568;6.932;2023-04-29T07:48:02;50253.28;;;-144.14;98.24
7075;BME280;3578;51.568;6.932;2023-04-29T07:50:29;50241.25;;;-144.14;98.43
7075;BME280;3578;51.568;6.932;2023-04-29T07:52:56;50241.25;;;-144.14;98.49
7075;BME280;3578;51.568;6.932;2023-04-29T07:55:26;50245.25;;;-144.14;98.47
7075;BME280;3578;51.568;6.932;2023-04-29T07:57:54;50221.25;;;-144.14;98.72
7075;BME280;3578;51.568;6.932;2023-04-29T08:00:22;50265.28;;;-144.14;98.77
7075;BME280;3578;51.568;6.932;2023-04-29T08:02:50;50213.22;;;-144.14;98.72
7075;BME280;3578;51.568;6.932;2023-04-29T08:05:17;50239.25;;;-144.14;98.37
7075;BME280;3578;51.568;6.932;2023-04-29T08:07:45;50305.34;;;-144.14;98.07
7075;BME280;3578;51.568;6.932;2023-04-29T08:10:12;50325.34;;;-144.14;97.52
7075;BME280;3578;51.568;6.932;2023-04-29T08:12:40;50369.41;;;-144.14;96.92
7075;BME280;3578;51.568;6.932;2023-04-29T08:15:08;50349.38;;;-144.14;97.21
7075;BME280;3578;51.568;6.932;2023-04-29T08:17:35;50343.38;;;-144.14;97.76
7075;BME280;3578;51.568;6.932;2023-04-29T08:20:03;50337.38;;;-144.14;98.02
7075;BME280;3578;51.568;6.932;2023-04-29T08:22:32;50293.31;;;-144.14;98.06
7075;BME280;3578;51.568;6.932;2023-04-29T08:24:59;50317.34;;;-144.14;97.97
7075;BME280;3578;51.568;6.932;2023-04-29T08:27:27;50317.34;;;-144.14;97.68
7075;BME280;3578;51.568;6.932;2023-04-29T08:29:56;50357.41;;;-144.14;97.22
7075;BME280;3578;51.568;6.932;2023-04-29T08:32:23;50403.44;;;-144.14;96.56
7075;BME280;3578;51.568;6.932;2023-04-29T08:34:50;50471.53;;;-144.14;95.80
7075;BME280;3578;51.568;6.932;2023-04-29T08:37:17;50477.53;;;-144.14;95.57
7075;BME280;3578;51.568;6.932;2023-04-29T08:39:45;50497.56;;;-144.14;95.72
7075;BME280;3578;51.568;6.932;2023-04-29T08:42:13;50485.56;;;-144.14;95.79
7075;BME280;3578;51.568;6.932;2023-04-29T08:44:40;50469.53;;;-144.14;95.64
7075;BME280;3578;51.568;6.932;2023-04-29T08:47:10;50529.59;;;-144.14;95.39
7075;BME280;3578;51.568;6.932;2023-04-29T08:49:40;50525.59;;;-144.14;95.17
7075;BME280;3578;51.568;6.932;2023-04-29T08:52:07;50537.63;;;-144.14;94.59
7075;BME280;3578;51.568;6.932;2023-04-29T08:54:34;50603.69;;;-144.14;94.44
7075;BME280;3578;51.568;6.932;2023-04-29T08:57:01;50625.72;;;-144.14;94.25
7075;BME280;3578;51.568;6.932;2023-04-29T08:59:29;50625.72;;;-144.14;93.52
7075;BME280;3578;51.568;6.932;2023-04-29T09:01:58;50627.72;;;-144.14;93.69
7075;BME280;3578;51.568;6.932;2023-04-29T09:04:39;50633.75;;;-144.14;93.55
7075;BME280;3578;51.568;6.932;2023-04-29T09:07:08;50665.78;;;-144.14;92.88
7075;BME280;3578;51.568;6.932;2023-04-29T09:09:39;50685.81;;;-144.14;92.23
7075;BME280;3578;51.568;6.932;2023-04-29T09:12:07;50759.91;;;-144.14;91.58
7075;BME280;3578;51.568;6.932;2023-04-29T09:14:35;50777.91;;;-144.14;91.21
7075;BME280;3578;51.568;6.932;2023-04-29T09:17:02;50819.97;;;-144.14;90.95
7075;BME280;3578;51.568;6.932;2023-04-29T09:19:32;50817.97;;;-144.14;90.31
7075;BME280;3578;51.568;6.932;2023-04-29T09:22:01;50852.03;;;-144.14;90.36
7075;BME280;3578;51.568;6.932;2023-04-29T09:24:30;50932.13;;;-144.14;89.50
7075;BME280;3578;51.568;6.932;2023-04-29T09:26:58;50952.16;;;-144.14;89.09
7075;BME280;3578;51.568;6.932;2023-04-29T09:29:25;50936.13;;;-144.14;89.35
7075;BME280;3578;51.568;6.932;2023-04-29T09:31:52;50986.19;;;-144.14;89.50
7075;BME280;3578;51.568;6.932;2023-04-29T09:34:32;51016.25;;;-144.14;88.51
7075;BME280;3578;51.568;6.932;2023-04-29T09:37:00;51044.28;;;-144.14;88.33
7075;BME280;3578;51.568;6.932;2023-04-29T09:39:37;51086.34;;;-144.14;88.40
7075;BME280;3578;51.568;6.932;2023-04-29T09:42:05;51110.38;;;-144.14;88.22
7075;BME280;3578;51.568;6.932;2023-04-29T09:44:34;51134.41;;;-144.14;88.31
7075;BME280;3578;51.568;6.932;2023-04-29T09:47:05;51190.50;;;-144.14;86.45
7075;BME280;3578;51.568;6.932;2023-04-29T09:49:37;51280.63;;;-144.14;85.85
7075;BME280;3578;51.568;6.932;2023-04-29T09:52:07;51322.69;;;-144.14;85.30
7075;BME280;3578;51.568;6.932;2023-04-29T09:54:37;51338.72;;;-144.14;85.80
7075;BME280;3578;51.568;6.932;2023-04-29T09:57:07;51390.78;;;-144.14;85.12
7075;BME280;3578;51.568;6.932;2023-04-29T09:59:38;51424.84;;;-144.14;84.69
7075;BME280;3578;51.568;6.932;2023-04-29T10:02:12;51470.91;;;-144.14;85.40
7075;BME280;3578;51.568;6.932;2023-04-29T10:04:45;51488.94;;;-144.14;85.43
7075;BME280;3578;51.568;6.932;2023-04-29T10:07:14;51494.94;;;-144.14;85.16
7075;BME280;3578;51.568;6.932;2023-04-29T10:09:44;51561.03;;;-144.14;84.02
7075;BME280;3578;51.568;6.932;2023-04-29T10:12:15;51577.06;;;-144.14;83.87
7075;BME280;3578;51.568;6.932;2023-04-29T10:14:49;51655.19;;;-144.14;82.93
7075;BME280;3578;51.568;6.932;2023-04-29T10:17:28;51699.25;;;-144.14;83.24
7075;BME280;3578;51.568;6.932;2023-04-29T10:20:03;51689.25;;;-144.14;83.32
7075;BME280;3578;51.568;6.932;2023-04-29T10:22:39;51737.31;;;-144.14;83.49
7075;BME280;3578;51.568;6.932;2023-04-29T10:25:10;51833.47;;;-144.14;82.68
7075;BME280;3578;51.568;6.932;2023-04-29T10:27:41;51939.66;;;-144.14;79.80
7075;BME280;3578;51.568;6.932;2023-04-29T10:30:12;51967.69;;;-144.14;80.29
7075;BME280;3578;51.568;6.932;2023-04-29T10:32:41;52087.91;;;-144.14;77.79
7075;BME280;3578;51.568;6.932;2023-04-29T10:35:11;52049.84;;;-144.14;80.12
7075;BME280;3578;51.568;6.932;2023-04-29T10:37:40;52061.84;;;-144.14;80.67
7075;BME280;3578;51.568;6.932;2023-04-29T10:40:13;52093.91;;;-144.14;81.78
7075;BME280;3578;51.568;6.932;2023-04-29T10:42:45;52172.03;;;-144.14;78.60
7075;BME280;3578;51.568;6.932;2023-04-29T10:45:21;52236.16;;;-144.14;78.25
7075;BME280;3578;51.568;6.932;2023-04-29T10:48:10;52286.25;;;-144.14;79.27
7075;BME280;3578;51.568;6.932;2023-04-29T10:51:02;52302.28;;;-144.14;78.40
7075;BME280;3578;51.568;6.932;2023-04-29T10:53:31;52348.34;;;-144.14;77.27
7075;BME280;3578;51.568;6.932;2023-04-29T10:56:13;52400.44;;;-144.14;76.99
7075;BME280;3578;51.568;6.932;2023-04-29T10:58:46;52444.53;;;-144.14;77.40
7075;BME280;3578;51.568;6.932;2023-04-29T11:01:49;52512.66;;;-144.14;74.84
7075;BME280;3578;51.568;6.932;2023-04-29T11:04:25;52520.66;;;-144.14;76.64
7075;BME280;3578;51.568;6.932;2023-04-29T11:06:56;52560.72;;;-144.14;77.06
7075;BME280;3578;51.568;6.932;2023-04-29T11:09:34;52672.94;;;-144.14;73.88
7075;BME280;3578;51.568;6.932;2023-04-29T11:12:21;52791.16;;;-144.14;67.94
7075;BME280;3578;51.568;6.932;2023-04-29T11:14:49;52785.16;;;-144.14;71.10
7075;BME280;3578;51.568;6.932;2023-04-29T11:17:18;52925.44;;;-144.14;67.05
7075;BME280;3578;51.568;6.932;2023-04-29T11:19:48;52953.47;;;-144.14;68.82
7075;BME280;3578;51.568;6.932;2023-04-29T11:22:27;53005.59;;;-144.14;65.25
7075;BME280;3578;51.568;6.932;2023-04-29T11:24:56;52993.56;;;-144.14;68.03
7075;BME280;3578;51.568;6.932;2023-04-29T11:27:27;53161.91;;;-144.14;63.10
7075;BME280;3578;51.568;6.932;2023-04-29T11:29:56;53143.84;;;-144.14;66.27
7075;BME280;3578;51.568;6.932;2023-04-29T11:32:24;53199.97;;;-144.14;62.54
7075;BME280;3578;51.568;6.932;2023-04-29T11:34:52;53244.06;;;-144.14;62.50
7075;BME280;3578;51.568;6.932;2023-04-29T11:37:23;53378.34;;;-144.14;55.32
7075;BME280;3578;51.568;6.932;2023-04-29T11:39:59;53420.44;;;-144.14;56.52
7075;BME280;3578;51.568;6.932;2023-04-29T11:42:27;53462.50;;;-144.14;56.83
7075;BME280;3578;51.568;6.932;2023-04-29T11:44:54;53516.63;;;-144.14;56.34
7075;BME280;3578;51.568;6.932;2023-04-29T11:47:26;53542.69;;;-144.14;57.34
7075;BME280;3578;51.568;6.932;2023-04-29T11:50:02;53576.75;;;-144.14;54.58
7075;BME280;3578;51.568;6.932;2023-04-29T11:52:30;53678.97;;;-144.14;52.15
7075;BME280;3578;51.568;6.932;2023-04-29T11:54:58;53668.94;;;-144.14;52.89
7075;BME280;3578;51.568;6.932;2023-04-29T11:57:25;53648.91;;;-144.14;55.59
7075;BME280;3578;51.568;6.932;2023-04-29T11:59:52;53610.81;;;-144.14;57.77
7075;BME280;3578;51.568;6.932;2023-04-29T12:02:21;53606.81;;;-144.14;58.04
7075;BME280;3578;51.568;6.932;2023-04-29T12:04:48;53586.78;;;-144.14;58.79
7075;BME280;3578;51.568;6.932;2023-04-29T12:07:15;53554.72;;;-144.14;60.55
7075;BME280;3578;51.568;6.932;2023-04-29T12:09:43;53550.69;;;-144.14;59.53
7075;BME280;3578;51.568;6.932;2023-04-29T12:12:13;53534.66;;;-144.14;61.66
7075;BME280;3578;51.568;6.932;2023-04-29T12:14:41;53482.56;;;-144.14;62.31
7075;BME280;3578;51.568;6.932;2023-04-29T12:17:08;53474.53;;;-144.14;61.41
7075;BME280;3578;51.568;6.932;2023-04-29T12:19:36;53448.47;;;-144.14;61.16
7075;BME280;3578;51.568;6.932;2023-04-29T12:22:04;53440.47;;;-144.14;62.61
7075;BME280;3578;51.568;6.932;2023-04-29T12:24:33;53424.44;;;-144.14;62.69
7075;BME280;3578;51.568;6.932;2023-04-29T12:27:01;53414.41;;;-144.14;66.94
7075;BME280;3578;51.568;6.932;2023-04-29T12:29:30;53380.34;;;-144.14;70.61
7075;BME280;3578;51.568;6.932;2023-04-29T12:31:58;53394.38;;;-144.14;68.76
7075;BME280;3578;51.568;6.932;2023-04-29T12:34:27;53426.44;;;-144.14;66.46
7075;BME280;3578;51.568;6.932;2023-04-29T12:36:55;53466.53;;;-144.14;64.69
7075;BME280;3578;51.568;6.932;2023-04-29T12:39:22;53486.56;;;-144.14;65.34
7075;BME280;3578;51.568;6.932;2023-04-29T12:41:54;53528.66;;;-144.14;61.79
7075;BME280;3578;51.568;6.932;2023-04-29T12:44:22;53554.72;;;-144.14;59.92
7075;BME280;3578;51.568;6.932;2023-04-29T12:46:50;53504.59;;;-144.14;65.20
7075;BME280;3578;51.568;6.932;2023-04-29T12:49:18;53550.69;;;-144.14;61.64
7075;BME280;3578;51.568;6.932;2023-04-29T12:51:46;53538.69;;;-144.14;64.82
7075;BME280;3578;51.568;6.932;2023-04-29T12:54:13;53534.66;;;-144.14;66.37
7075;BME280;3578;51.568;6.932;2023-04-29T12:56:40;53626.88;;;-144.14;62.59
7075;BME280;3578;51.568;6.932;2023-04-29T12:59:09;53662.94;;;-144.14;58.55
7075;BME280;3578;51.568;6.932;2023-04-29T13:01:37;53676.97;;;-144.14;56.10
7075;BME280;3578;51.568;6.932;2023-04-29T13:04:05;53662.94;;;-144.14;56.71